sensor_id;sensor_type;location;lat;lon;timestamp;P1;durP1;ratioP1;P2;durP2;ratioP2
23236;SDS011;11787;52.018;8.570;2022-11-27T00:02:04;11.35;;;8.88;;
23236;SDS011;11787;52.018;8.570;2022-11-27T00:04:29;12.23;;;8.88;;
23236;SDS011;11787;52.018;8.570;2022-11-27T00:06:55;14.45;;;9.40;;
23236;SDS011;11787;52.018;8.570;2022-11-27T00:09:21;17.65;;;8.98;;
23236;SDS011;11787;52.018;8.570;2022-11-27T00:11:46;17.55;;;8.63;;
23236;SDS011;11787;52.018;8.570;2022-11-27T00:14:13;13.88;;;9.00;;
23236;SDS011;11787;52.018;8.570;2022-11-27T00:20:01;11.95;;;8.68;;
23236;SDS011;11787;52.018;8.570;2022-11-27T00:22:27;17.42;;;8.75;;
23236;SDS011;11787;52.018;8.570;2022-11-27T00:24:53;12.77;;;8.35;;
23236;SDS011;11787;52.018;8.570;2022-11-27T00:27:19;15.68;;;8.57;;
23236;SDS011;11787;52.018;8.570;2022-11-27T00:29:44;15.48;;;7.28;;
23236;SDS011;11787;52.018;8.570;2022-11-27T00:32:10;13.35;;;6.60;;
23236;SDS011;11787;52.018;8.570;2022-11-27T00:34:36;10.00;;;6.80;;
23236;SDS011;11787;52.018;8.570;2022-11-27T00:37:02;12.48;;;7.03;;
23236;SDS011;11787;52.018;8.570;2022-11-27T00:39:27;11.57;;;6.18;;
23236;SDS011;11787;52.018;8.570;2022-11-27T00:41:53;14.23;;;6.88;;
23236;SDS011;11787;52.018;8.570;2022-11-27T00:44:19;9.25;;;6.22;;
23236;SDS011;11787;52.018;8.570;2022-11-27T00:46:44;11.95;;;6.07;;
23236;SDS011;11787;52.018;8.570;2022-11-27T00:49:11;10.82;;;6.07;;
23236;SDS011;11787;52.018;8.570;2022-11-27T00:51:38;12.98;;;5.90;;
23236;SDS011;11787;52.018;8.570;2022-11-27T00:54:04;10.73;;;6.20;;
23236;SDS011;11787;52.018;8.570;2022-11-27T00:56:31;9.85;;;5.75;;
23236;SDS011;11787;52.018;8.570;2022-11-27T00:58:59;12.27;;;6.78;;
23236;SDS011;11787;52.018;8.570;2022-11-27T01:01:26;14.60;;;6.18;;
23236;SDS011;11787;52.018;8.570;2022-11-27T01:03:54;11.35;;;6.63;;
23236;SDS011;11787;52.018;8.570;2022-11-27T01:06:21;19.25;;;6.63;;
23236;SDS011;11787;52.018;8.570;2022-11-27T01:08:46;10.77;;;6.45;;
23236;SDS011;11787;52.018;8.570;2022-11-27T01:11:17;10.40;;;6.53;;
23236;SDS011;11787;52.018;8.570;2022-11-27T01:13:44;11.52;;;6.50;;
23236;SDS011;11787;52.018;8.570;2022-11-27T01:16:11;11.82;;;6.10;;
23236;SDS011;11787;52.018;8.570;2022-11-27T01:18:43;12.00;;;6.38;;
23236;SDS011;11787;52.018;8.570;2022-11-27T01:21:10;12.60;;;6.78;;
23236;SDS011;11787;52.018;8.570;2022-11-27T01:23:37;14.18;;;6.25;;
23236;SDS011;11787;52.018;8.570;2022-11-27T01:26:03;12.18;;;7.30;;
23236;SDS011;11787;52.018;8.570;2022-11-27T01:28:31;12.48;;;7.50;;
23236;SDS011;11787;52.018;8.570;2022-11-27T01:30:57;12.63;;;7.30;;
23236;SDS011;11787;52.018;8.570;2022-11-27T01:33:23;8.98;;;6.60;;
23236;SDS011;11787;52.018;8.570;2022-11-27T01:35:55;13.40;;;6.95;;
23236;SDS011;11787;52.018;8.570;2022-11-27T01:38:23;13.27;;;7.70;;
23236;SDS011;11787;52.018;8.570;2022-11-27T01:40:54;10.65;;;7.25;;
23236;SDS011;11787;52.018;8.570;2022-11-27T01:43:37;11.10;;;7.63;;
23236;SDS011;11787;52.018;8.570;2022-11-27T01:54:16;9.45;;;6.88;;
23236;SDS011;11787;52.018;8.570;2022-11-27T01:56:45;12.48;;;7.55;;
23236;SDS011;11787;52.018;8.570;2022-11-27T01:59:15;10.02;;;7.15;;
23236;SDS011;11787;52.018;8.570;2022-11-27T02:01:41;12.75;;;7.95;;
23236;SDS011;11787;52.018;8.570;2022-11-27T02:04:07;11.68;;;7.85;;
23236;SDS011;11787;52.018;8.570;2022-11-27T02:06:32;12.80;;;7.75;;
23236;SDS011;11787;52.018;8.570;2022-11-27T02:08:59;9.32;;;7.57;;
23236;SDS011;11787;52.018;8.570;2022-11-27T02:11:59;12.27;;;7.47;;
23236;SDS011;11787;52.018;8.570;2022-11-27T02:14:36;12.85;;;7.22;;
23236;SDS011;11787;52.018;8.570;2022-11-27T02:30:53;13.80;;;7.78;;
23236;SDS011;11787;52.018;8.570;2022-11-27T02:33:22;11.93;;;7.38;;
23236;SDS011;11787;52.018;8.570;2022-11-27T02:35:54;12.30;;;7.75;;
23236;SDS011;11787;52.018;8.570;2022-11-27T02:38:26;11.25;;;7.50;;
23236;SDS011;11787;52.018;8.570;2022-11-27T02:43:36;12.32;;;7.75;;
23236;SDS011;11787;52.018;8.570;2022-11-27T02:46:05;12.43;;;8.27;;
23236;SDS011;11787;52.018;8.570;2022-11-27T02:48:34;11.43;;;7.40;;
23236;SDS011;11787;52.018;8.570;2022-11-27T02:51:03;14.38;;;7.63;;
23236;SDS011;11787;52.018;8.570;2022-11-27T02:53:35;10.25;;;7.40;;
23236;SDS011;11787;52.018;8.570;2022-11-27T02:56:05;13.43;;;8.05;;
23236;SDS011;11787;52.018;8.570;2022-11-27T02:58:35;11.70;;;8.20;;
23236;SDS011;11787;52.018;8.570;2022-11-27T03:01:02;12.02;;;8.48;;
23236;SDS011;11787;52.018;8.570;2022-11-27T03:03:33;14.70;;;8.15;;
23236;SDS011;11787;52.018;8.570;2022-11-27T03:06:04;14.10;;;7.95;;
23236;SDS011;11787;52.018;8.570;2022-11-27T03:08:37;12.98;;;7.85;;
23236;SDS011;11787;52.018;8.570;2022-11-27T03:11:13;15.30;;;8.55;;
23236;SDS011;11787;52.018;8.570;2022-11-27T03:13:41;12.90;;;8.43;;
23236;SDS011;11787;52.018;8.570;2022-11-27T03:22:14;13.48;;;9.25;;
23236;SDS011;11787;52.018;8.570;2022-11-27T03:24:41;13.32;;;8.15;;
23236;SDS011;11787;52.018;8.570;2022-11-27T03:27:06;15.50;;;8.63;;
23236;SDS011;11787;52.018;8.570;2022-11-27T03:32:03;12.65;;;8.88;;
23236;SDS011;11787;52.018;8.570;2022-11-27T03:34:29;12.98;;;8.25;;
23236;SDS011;11787;52.018;8.570;2022-11-27T03:36:56;15.82;;;8.95;;
23236;SDS011;11787;52.018;8.570;2022-11-27T03:39:22;15.57;;;9.05;;
23236;SDS011;11787;52.018;8.570;2022-11-27T03:50:16;16.67;;;9.50;;
23236;SDS011;11787;52.018;8.570;2022-11-27T03:53:13;16.30;;;9.55;;
23236;SDS011;11787;52.018;8.570;2022-11-27T03:58:31;13.82;;;9.10;;
23236;SDS011;11787;52.018;8.570;2022-11-27T04:01:00;15.18;;;9.40;;
23236;SDS011;11787;52.018;8.570;2022-11-27T04:03:28;14.00;;;9.07;;
23236;SDS011;11787;52.018;8.570;2022-11-27T04:05:54;15.52;;;9.20;;
23236;SDS011;11787;52.018;8.570;2022-11-27T04:08:20;16.33;;;9.85;;
23236;SDS011;11787;52.018;8.570;2022-11-27T04:10:47;14.35;;;9.88;;
23236;SDS011;11787;52.018;8.570;2022-11-27T04:13:13;15.38;;;9.35;;
23236;SDS011;11787;52.018;8.570;2022-11-27T04:15:39;15.15;;;9.57;;
23236;SDS011;11787;52.018;8.570;2022-11-27T04:18:04;17.58;;;9.95;;
23236;SDS011;11787;52.018;8.570;2022-11-27T04:20:30;16.88;;;9.93;;
23236;SDS011;11787;52.018;8.570;2022-11-27T04:22:56;13.48;;;8.68;;
23236;SDS011;11787;52.018;8.570;2022-11-27T04:25:22;15.55;;;9.13;;
23236;SDS011;11787;52.018;8.570;2022-11-27T04:27:48;16.70;;;9.60;;
23236;SDS011;11787;52.018;8.570;2022-11-27T04:30:14;15.77;;;9.23;;
23236;SDS011;11787;52.018;8.570;2022-11-27T04:32:40;14.50;;;9.43;;
23236;SDS011;11787;52.018;8.570;2022-11-27T04:35:05;16.50;;;9.60;;
23236;SDS011;11787;52.018;8.570;2022-11-27T04:37:31;15.88;;;8.98;;
23236;SDS011;11787;52.018;8.570;2022-11-27T04:39:57;16.42;;;8.73;;
23236;SDS011;11787;52.018;8.570;2022-11-27T04:42:22;13.82;;;9.18;;
23236;SDS011;11787;52.018;8.570;2022-11-27T04:44:48;14.43;;;9.50;;
23236;SDS011;11787;52.018;8.570;2022-11-27T04:47:14;17.65;;;9.77;;
23236;SDS011;11787;52.018;8.570;2022-11-27T04:49:39;16.10;;;8.90;;
23236;SDS011;11787;52.018;8.570;2022-11-27T04:52:05;13.88;;;9.15;;
23236;SDS011;11787;52.018;8.570;2022-11-27T04:54:30;16.40;;;8.90;;
23236;SDS011;11787;52.018;8.570;2022-11-27T04:56:56;15.13;;;9.55;;
23236;SDS011;11787;52.018;8.570;2022-11-27T04:59:22;14.70;;;8.82;;
23236;SDS011;11787;52.018;8.570;2022-11-27T05:01:47;14.73;;;8.93;;
23236;SDS011;11787;52.018;8.570;2022-11-27T05:04:13;14.38;;;9.63;;
23236;SDS011;11787;52.018;8.570;2022-11-27T05:06:39;13.32;;;8.80;;
23236;SDS011;11787;52.018;8.570;2022-11-27T05:09:04;13.77;;;8.43;;
23236;SDS011;11787;52.018;8.570;2022-11-27T05:11:30;13.27;;;9.27;;
23236;SDS011;11787;52.018;8.570;2022-11-27T05:13:56;14.35;;;9.30;;
23236;SDS011;11787;52.018;8.570;2022-11-27T05:16:45;18.67;;;9.63;;
23236;SDS011;11787;52.018;8.570;2022-11-27T05:19:12;14.43;;;8.57;;
23236;SDS011;11787;52.018;8.570;2022-11-27T05:21:39;12.82;;;8.88;;
23236;SDS011;11787;52.018;8.570;2022-11-27T05:24:05;13.43;;;8.90;;
23236;SDS011;11787;52.018;8.570;2022-11-27T05:26:31;11.75;;;8.35;;
23236;SDS011;11787;52.018;8.570;2022-11-27T05:28:57;14.63;;;8.48;;
23236;SDS011;11787;52.018;8.570;2022-11-27T05:31:23;14.48;;;8.60;;
23236;SDS011;11787;52.018;8.570;2022-11-27T05:33:48;14.40;;;9.15;;
23236;SDS011;11787;52.018;8.570;2022-11-27T05:36:14;12.95;;;8.68;;
23236;SDS011;11787;52.018;8.570;2022-11-27T05:38:40;13.90;;;9.02;;
23236;SDS011;11787;52.018;8.570;2022-11-27T05:44:27;12.52;;;8.63;;
23236;SDS011;11787;52.018;8.570;2022-11-27T05:46:53;14.65;;;9.05;;
23236;SDS011;11787;52.018;8.570;2022-11-27T05:49:18;15.68;;;9.75;;
23236;SDS011;11787;52.018;8.570;2022-11-27T05:51:44;14.60;;;9.23;;
23236;SDS011;11787;52.018;8.570;2022-11-27T05:54:09;13.48;;;9.43;;
23236;SDS011;11787;52.018;8.570;2022-11-27T05:56:35;13.90;;;9.02;;
23236;SDS011;11787;52.018;8.570;2022-11-27T05:59:01;12.20;;;9.25;;
23236;SDS011;11787;52.018;8.570;2022-11-27T06:01:26;12.60;;;8.98;;
23236;SDS011;11787;52.018;8.570;2022-11-27T06:03:52;13.60;;;9.48;;
23236;SDS011;11787;52.018;8.570;2022-11-27T06:06:18;16.45;;;9.23;;
23236;SDS011;11787;52.018;8.570;2022-11-27T06:08:44;15.07;;;9.40;;
23236;SDS011;11787;52.018;8.570;2022-11-27T06:11:12;13.65;;;9.43;;
23236;SDS011;11787;52.018;8.570;2022-11-27T06:13:40;16.67;;;10.18;;
23236;SDS011;11787;52.018;8.570;2022-11-27T06:16:13;15.10;;;10.13;;
23236;SDS011;11787;52.018;8.570;2022-11-27T06:21:06;13.85;;;9.30;;
23236;SDS011;11787;52.018;8.570;2022-11-27T06:23:33;12.60;;;9.13;;
23236;SDS011;11787;52.018;8.570;2022-11-27T06:26:07;15.57;;;9.45;;
23236;SDS011;11787;52.018;8.570;2022-11-27T06:28:35;15.70;;;9.82;;
23236;SDS011;11787;52.018;8.570;2022-11-27T06:31:04;14.65;;;9.77;;
23236;SDS011;11787;52.018;8.570;2022-11-27T06:33:35;13.02;;;9.00;;
23236;SDS011;11787;52.018;8.570;2022-11-27T06:36:01;14.23;;;9.02;;
23236;SDS011;11787;52.018;8.570;2022-11-27T06:38:27;13.02;;;8.77;;
23236;SDS011;11787;52.018;8.570;2022-11-27T06:40:53;13.88;;;8.90;;
23236;SDS011;11787;52.018;8.570;2022-11-27T06:43:18;13.73;;;8.52;;
23236;SDS011;11787;52.018;8.570;2022-11-27T06:45:50;15.48;;;8.82;;
23236;SDS011;11787;52.018;8.570;2022-11-27T06:48:19;13.23;;;8.50;;
23236;SDS011;11787;52.018;8.570;2022-11-27T06:54:13;11.93;;;7.85;;
23236;SDS011;11787;52.018;8.570;2022-11-27T06:56:38;12.90;;;8.13;;
23236;SDS011;11787;52.018;8.570;2022-11-27T06:59:04;10.98;;;7.60;;
23236;SDS011;11787;52.018;8.570;2022-11-27T07:01:29;12.55;;;7.93;;
23236;SDS011;11787;52.018;8.570;2022-11-27T07:03:55;12.60;;;9.10;;
23236;SDS011;11787;52.018;8.570;2022-11-27T07:06:23;15.43;;;8.95;;
23236;SDS011;11787;52.018;8.570;2022-11-27T07:08:50;10.25;;;7.55;;
23236;SDS011;11787;52.018;8.570;2022-11-27T07:11:18;16.63;;;8.35;;
23236;SDS011;11787;52.018;8.570;2022-11-27T07:13:46;13.68;;;8.65;;
23236;SDS011;11787;52.018;8.570;2022-11-27T07:16:14;15.45;;;10.55;;
23236;SDS011;11787;52.018;8.570;2022-11-27T07:18:41;13.43;;;8.85;;
23236;SDS011;11787;52.018;8.570;2022-11-27T07:21:08;16.70;;;8.63;;
23236;SDS011;11787;52.018;8.570;2022-11-27T07:23:34;13.27;;;7.28;;
23236;SDS011;11787;52.018;8.570;2022-11-27T07:26:06;12.05;;;7.78;;
23236;SDS011;11787;52.018;8.570;2022-11-27T07:28:34;13.00;;;7.13;;
23236;SDS011;11787;52.018;8.570;2022-11-27T07:31:00;12.18;;;7.50;;
23236;SDS011;11787;52.018;8.570;2022-11-27T07:33:26;16.02;;;9.65;;
23236;SDS011;11787;52.018;8.570;2022-11-27T07:36:02;13.68;;;8.55;;
23236;SDS011;11787;52.018;8.570;2022-11-27T07:38:29;13.80;;;8.65;;
23236;SDS011;11787;52.018;8.570;2022-11-27T07:40:58;14.52;;;8.68;;
23236;SDS011;11787;52.018;8.570;2022-11-27T07:43:25;12.70;;;8.73;;
23236;SDS011;11787;52.018;8.570;2022-11-27T07:45:51;13.65;;;8.93;;
23236;SDS011;11787;52.018;8.570;2022-11-27T07:48:16;9.75;;;7.13;;
23236;SDS011;11787;52.018;8.570;2022-11-27T07:50:42;13.38;;;7.35;;
23236;SDS011;11787;52.018;8.570;2022-11-27T07:53:08;12.27;;;6.97;;
23236;SDS011;11787;52.018;8.570;2022-11-27T07:55:36;11.02;;;7.03;;
23236;SDS011;11787;52.018;8.570;2022-11-27T08:01:24;12.48;;;6.85;;
23236;SDS011;11787;52.018;8.570;2022-11-27T08:03:50;10.90;;;6.90;;
23236;SDS011;11787;52.018;8.570;2022-11-27T08:06:16;11.80;;;6.80;;
23236;SDS011;11787;52.018;8.570;2022-11-27T08:08:50;12.90;;;6.95;;
23236;SDS011;11787;52.018;8.570;2022-11-27T08:11:22;10.77;;;7.00;;
23236;SDS011;11787;52.018;8.570;2022-11-27T08:13:53;11.05;;;6.55;;
23236;SDS011;11787;52.018;8.570;2022-11-27T08:16:23;10.73;;;6.60;;
23236;SDS011;11787;52.018;8.570;2022-11-27T08:18:49;9.90;;;6.57;;
23236;SDS011;11787;52.018;8.570;2022-11-27T08:21:15;11.13;;;7.10;;
23236;SDS011;11787;52.018;8.570;2022-11-27T08:23:40;11.43;;;6.35;;
23236;SDS011;11787;52.018;8.570;2022-11-27T08:26:06;9.70;;;6.32;;
23236;SDS011;11787;52.018;8.570;2022-11-27T08:28:33;9.38;;;6.53;;
23236;SDS011;11787;52.018;8.570;2022-11-27T08:30:59;10.98;;;6.38;;
23236;SDS011;11787;52.018;8.570;2022-11-27T08:33:27;9.50;;;6.18;;
23236;SDS011;11787;52.018;8.570;2022-11-27T08:35:53;12.95;;;7.07;;
23236;SDS011;11787;52.018;8.570;2022-11-27T08:38:19;14.13;;;8.05;;
23236;SDS011;11787;52.018;8.570;2022-11-27T08:40:52;15.93;;;9.90;;
23236;SDS011;11787;52.018;8.570;2022-11-27T08:43:28;11.63;;;6.90;;
23236;SDS011;11787;52.018;8.570;2022-11-27T08:45:54;9.95;;;6.40;;
23236;SDS011;11787;52.018;8.570;2022-11-27T08:48:21;10.15;;;6.05;;
23236;SDS011;11787;52.018;8.570;2022-11-27T08:54:09;9.90;;;6.05;;
23236;SDS011;11787;52.018;8.570;2022-11-27T08:56:35;12.38;;;6.90;;
23236;SDS011;11787;52.018;8.570;2022-11-27T08:59:01;10.52;;;6.50;;
23236;SDS011;11787;52.018;8.570;2022-11-27T09:04:49;10.30;;;6.10;;
23236;SDS011;11787;52.018;8.570;2022-11-27T09:07:14;10.27;;;6.82;;
23236;SDS011;11787;52.018;8.570;2022-11-27T09:09:40;11.43;;;6.10;;
23236;SDS011;11787;52.018;8.570;2022-11-27T09:15:28;11.38;;;5.45;;
23236;SDS011;11787;52.018;8.570;2022-11-27T09:21:16;8.20;;;5.22;;
23236;SDS011;11787;52.018;8.570;2022-11-27T09:23:43;9.48;;;4.97;;
23236;SDS011;11787;52.018;8.570;2022-11-27T09:26:12;7.28;;;5.13;;
23236;SDS011;11787;52.018;8.570;2022-11-27T09:28:40;9.82;;;5.22;;
23236;SDS011;11787;52.018;8.570;2022-11-27T09:31:07;6.28;;;4.97;;
23236;SDS011;11787;52.018;8.570;2022-11-27T09:33:35;10.50;;;5.60;;
23236;SDS011;11787;52.018;8.570;2022-11-27T09:36:05;8.50;;;5.05;;
23236;SDS011;11787;52.018;8.570;2022-11-27T09:38:33;8.30;;;5.03;;
23236;SDS011;11787;52.018;8.570;2022-11-27T09:41:02;10.45;;;6.95;;
23236;SDS011;11787;52.018;8.570;2022-11-27T09:43:42;8.98;;;5.20;;
23236;SDS011;11787;52.018;8.570;2022-11-27T09:46:19;7.97;;;4.60;;
23236;SDS011;11787;52.018;8.570;2022-11-27T09:52:38;9.80;;;5.45;;
23236;SDS011;11787;52.018;8.570;2022-11-27T09:55:30;6.68;;;4.50;;
23236;SDS011;11787;52.018;8.570;2022-11-27T09:58:14;9.32;;;4.22;;
23236;SDS011;11787;52.018;8.570;2022-11-27T10:00:43;6.15;;;4.72;;
23236;SDS011;11787;52.018;8.570;2022-11-27T10:03:13;5.75;;;4.55;;
23236;SDS011;11787;52.018;8.570;2022-11-27T10:06:05;6.90;;;4.50;;
23236;SDS011;11787;52.018;8.570;2022-11-27T10:08:54;8.57;;;4.05;;
23236;SDS011;11787;52.018;8.570;2022-11-27T10:20:39;8.70;;;4.15;;
23236;SDS011;11787;52.018;8.570;2022-11-27T10:26:17;7.22;;;3.88;;
23236;SDS011;11787;52.018;8.570;2022-11-27T10:31:13;7.55;;;4.00;;
23236;SDS011;11787;52.018;8.570;2022-11-27T10:33:49;6.35;;;3.80;;
23236;SDS011;11787;52.018;8.570;2022-11-27T10:36:38;6.72;;;4.35;;
23236;SDS011;11787;52.018;8.570;2022-11-27T10:45:25;5.53;;;3.60;;
23236;SDS011;11787;52.018;8.570;2022-11-27T10:48:00;6.75;;;3.92;;
23236;SDS011;11787;52.018;8.570;2022-11-27T10:50:26;4.85;;;3.50;;
23236;SDS011;11787;52.018;8.570;2022-11-27T10:52:53;6.38;;;3.53;;
23236;SDS011;11787;52.018;8.570;2022-11-27T10:55:46;7.30;;;3.95;;
23236;SDS011;11787;52.018;8.570;2022-11-27T10:58:39;6.70;;;3.55;;
23236;SDS011;11787;52.018;8.570;2022-11-27T11:01:14;8.00;;;3.83;;
23236;SDS011;11787;52.018;8.570;2022-11-27T11:03:41;5.32;;;3.60;;
23236;SDS011;11787;52.018;8.570;2022-11-27T11:06:14;9.30;;;3.70;;
23236;SDS011;11787;52.018;8.570;2022-11-27T11:08:42;6.88;;;3.17;;
23236;SDS011;11787;52.018;8.570;2022-11-27T11:33:01;9.27;;;3.30;;
23236;SDS011;11787;52.018;8.570;2022-11-27T11:35:31;5.45;;;2.72;;
23236;SDS011;11787;52.018;8.570;2022-11-27T11:37:59;6.60;;;2.92;;
23236;SDS011;11787;52.018;8.570;2022-11-27T11:40:30;7.88;;;3.47;;
23236;SDS011;11787;52.018;8.570;2022-11-27T11:43:02;6.45;;;2.90;;
23236;SDS011;11787;52.018;8.570;2022-11-27T11:45:30;5.70;;;2.90;;
23236;SDS011;11787;52.018;8.570;2022-11-27T11:47:58;6.07;;;2.80;;
23236;SDS011;11787;52.018;8.570;2022-11-27T11:53:18;5.90;;;3.10;;
23236;SDS011;11787;52.018;8.570;2022-11-27T12:02:07;7.55;;;2.90;;
23236;SDS011;11787;52.018;8.570;2022-11-27T12:04:54;5.03;;;2.80;;
23236;SDS011;11787;52.018;8.570;2022-11-27T12:10:48;4.60;;;2.38;;
23236;SDS011;11787;52.018;8.570;2022-11-27T12:22:05;3.15;;;2.20;;
23236;SDS011;11787;52.018;8.570;2022-11-27T12:24:47;5.88;;;2.40;;
23236;SDS011;11787;52.018;8.570;2022-11-27T12:34:05;5.00;;;2.53;;
23236;SDS011;11787;52.018;8.570;2022-11-27T12:39:31;4.47;;;2.30;;
23236;SDS011;11787;52.018;8.570;2022-11-27T12:42:07;4.68;;;2.17;;
23236;SDS011;11787;52.018;8.570;2022-11-27T12:50:43;3.80;;;2.08;;
23236;SDS011;11787;52.018;8.570;2022-11-27T12:55:39;5.28;;;2.20;;
23236;SDS011;11787;52.018;8.570;2022-11-27T12:58:11;4.93;;;2.30;;
23236;SDS011;11787;52.018;8.570;2022-11-27T13:00:48;4.07;;;1.80;;
23236;SDS011;11787;52.018;8.570;2022-11-27T13:03:16;5.40;;;2.20;;
23236;SDS011;11787;52.018;8.570;2022-11-27T13:05:51;3.22;;;1.80;;
23236;SDS011;11787;52.018;8.570;2022-11-27T13:08:34;4.78;;;2.10;;
23236;SDS011;11787;52.018;8.570;2022-11-27T13:11:04;3.28;;;1.95;;
23236;SDS011;11787;52.018;8.570;2022-11-27T13:13:44;5.72;;;2.00;;
23236;SDS011;11787;52.018;8.570;2022-11-27T13:16:26;3.30;;;1.95;;
23236;SDS011;11787;52.018;8.570;2022-11-27T13:21:43;4.70;;;1.80;;
23236;SDS011;11787;52.018;8.570;2022-11-27T13:27:32;3.60;;;1.90;;
23236;SDS011;11787;52.018;8.570;2022-11-27T13:32:37;4.28;;;2.10;;
23236;SDS011;11787;52.018;8.570;2022-11-27T13:35:07;4.63;;;2.08;;
23236;SDS011;11787;52.018;8.570;2022-11-27T13:37:44;4.65;;;1.80;;
23236;SDS011;11787;52.018;8.570;2022-11-27T13:42:51;3.97;;;1.92;;
23236;SDS011;11787;52.018;8.570;2022-11-27T13:45:30;2.50;;;1.63;;
23236;SDS011;11787;52.018;8.570;2022-11-27T13:47:59;5.63;;;2.10;;
23236;SDS011;11787;52.018;8.570;2022-11-27T13:50:27;6.32;;;1.85;;
23236;SDS011;11787;52.018;8.570;2022-11-27T13:53:01;2.65;;;1.63;;
23236;SDS011;11787;52.018;8.570;2022-11-27T13:55:34;3.35;;;1.85;;
23236;SDS011;11787;52.018;8.570;2022-11-27T13:58:01;3.22;;;1.85;;
23236;SDS011;11787;52.018;8.570;2022-11-27T14:03:01;3.15;;;1.85;;
23236;SDS011;11787;52.018;8.570;2022-11-27T14:05:43;3.53;;;1.85;;
23236;SDS011;11787;52.018;8.570;2022-11-27T14:08:47;4.72;;;2.10;;
23236;SDS011;11787;52.018;8.570;2022-11-27T14:11:03;4.75;;;1.80;;
23236;SDS011;11787;52.018;8.570;2022-11-27T14:18:47;4.13;;;2.00;;
23236;SDS011;11787;52.018;8.570;2022-11-27T14:24:23;3.45;;;1.80;;
23236;SDS011;11787;52.018;8.570;2022-11-27T14:27:23;5.03;;;1.83;;
23236;SDS011;11787;52.018;8.570;2022-11-27T14:29:50;4.85;;;2.13;;
23236;SDS011;11787;52.018;8.570;2022-11-27T14:32:16;4.35;;;1.95;;
23236;SDS011;11787;52.018;8.570;2022-11-27T14:34:44;3.20;;;1.80;;
23236;SDS011;11787;52.018;8.570;2022-11-27T14:37:26;3.67;;;1.90;;
23236;SDS011;11787;52.018;8.570;2022-11-27T14:39:52;4.07;;;2.40;;
23236;SDS011;11787;52.018;8.570;2022-11-27T14:42:22;4.10;;;1.98;;
23236;SDS011;11787;52.018;8.570;2022-11-27T14:45:06;2.55;;;1.98;;
23236;SDS011;11787;52.018;8.570;2022-11-27T14:47:38;3.53;;;1.50;;
23236;SDS011;11787;52.018;8.570;2022-11-27T14:50:09;2.63;;;1.60;;
23236;SDS011;11787;52.018;8.570;2022-11-27T14:52:38;5.15;;;1.85;;
23236;SDS011;11787;52.018;8.570;2022-11-27T14:55:08;5.38;;;1.92;;
23236;SDS011;11787;52.018;8.570;2022-11-27T14:57:40;2.47;;;1.58;;
23236;SDS011;11787;52.018;8.570;2022-11-27T15:00:14;3.00;;;1.65;;
23236;SDS011;11787;52.018;8.570;2022-11-27T15:02:42;3.90;;;1.80;;
23236;SDS011;11787;52.018;8.570;2022-11-27T15:08:32;3.22;;;1.90;;
23236;SDS011;11787;52.018;8.570;2022-11-27T15:11:00;3.42;;;1.70;;
23236;SDS011;11787;52.018;8.570;2022-11-27T15:16:49;3.75;;;1.58;;
23236;SDS011;11787;52.018;8.570;2022-11-27T15:19:19;5.32;;;1.80;;
23236;SDS011;11787;52.018;8.570;2022-11-27T15:21:53;2.97;;;1.55;;
23236;SDS011;11787;52.018;8.570;2022-11-27T15:24:27;4.63;;;1.60;;
23236;SDS011;11787;52.018;8.570;2022-11-27T15:26:53;3.17;;;1.33;;
23236;SDS011;11787;52.018;8.570;2022-11-27T15:29:29;3.05;;;1.30;;
23236;SDS011;11787;52.018;8.570;2022-11-27T15:32:01;2.55;;;1.30;;
23236;SDS011;11787;52.018;8.570;2022-11-27T15:34:30;2.58;;;1.33;;
23236;SDS011;11787;52.018;8.570;2022-11-27T15:37:01;2.88;;;1.45;;
23236;SDS011;11787;52.018;8.570;2022-11-27T15:39:37;2.85;;;1.48;;
23236;SDS011;11787;52.018;8.570;2022-11-27T15:45:38;3.95;;;1.70;;
23236;SDS011;11787;52.018;8.570;2022-11-27T15:48:04;2.60;;;1.23;;
23236;SDS011;11787;52.018;8.570;2022-11-27T15:50:37;3.17;;;1.50;;
23236;SDS011;11787;52.018;8.570;2022-11-27T15:53:03;3.65;;;1.63;;
23236;SDS011;11787;52.018;8.570;2022-11-27T15:55:28;3.97;;;1.60;;
23236;SDS011;11787;52.018;8.570;2022-11-27T15:57:54;4.45;;;1.60;;
23236;SDS011;11787;52.018;8.570;2022-11-27T16:00:20;2.80;;;1.40;;
23236;SDS011;11787;52.018;8.570;2022-11-27T16:02:46;4.00;;;1.70;;
23236;SDS011;11787;52.018;8.570;2022-11-27T16:05:12;2.05;;;1.33;;
23236;SDS011;11787;52.018;8.570;2022-11-27T16:07:37;1.98;;;1.30;;
23236;SDS011;11787;52.018;8.570;2022-11-27T16:13:25;2.42;;;1.45;;
23236;SDS011;11787;52.018;8.570;2022-11-27T16:15:50;3.60;;;1.30;;
23236;SDS011;11787;52.018;8.570;2022-11-27T16:18:16;4.65;;;2.00;;
23236;SDS011;11787;52.018;8.570;2022-11-27T16:20:42;4.43;;;1.60;;
23236;SDS011;11787;52.018;8.570;2022-11-27T16:23:07;5.25;;;1.60;;
23236;SDS011;11787;52.018;8.570;2022-11-27T16:25:33;2.90;;;1.83;;
23236;SDS011;11787;52.018;8.570;2022-11-27T16:28:01;3.80;;;1.65;;
23236;SDS011;11787;52.018;8.570;2022-11-27T16:30:27;3.45;;;1.58;;
23236;SDS011;11787;52.018;8.570;2022-11-27T16:32:52;5.32;;;1.90;;
23236;SDS011;11787;52.018;8.570;2022-11-27T16:35:18;4.18;;;1.40;;
23236;SDS011;11787;52.018;8.570;2022-11-27T16:37:43;5.32;;;1.50;;
23236;SDS011;11787;52.018;8.570;2022-11-27T16:40:09;4.18;;;2.13;;
23236;SDS011;11787;52.018;8.570;2022-11-27T16:42:35;2.42;;;1.70;;
23236;SDS011;11787;52.018;8.570;2022-11-27T16:45:01;4.70;;;1.80;;
23236;SDS011;11787;52.018;8.570;2022-11-27T16:47:28;3.35;;;1.52;;
23236;SDS011;11787;52.018;8.570;2022-11-27T16:49:53;3.45;;;1.45;;
23236;SDS011;11787;52.018;8.570;2022-11-27T16:52:19;4.53;;;1.65;;
23236;SDS011;11787;52.018;8.570;2022-11-27T16:54:44;3.03;;;1.50;;
23236;SDS011;11787;52.018;8.570;2022-11-27T16:57:10;2.25;;;1.60;;
23236;SDS011;11787;52.018;8.570;2022-11-27T16:59:36;2.45;;;1.35;;
23236;SDS011;11787;52.018;8.570;2022-11-27T17:02:02;2.92;;;1.90;;
23236;SDS011;11787;52.018;8.570;2022-11-27T17:07:50;2.70;;;1.73;;
23236;SDS011;11787;52.018;8.570;2022-11-27T17:10:15;2.78;;;1.80;;
23236;SDS011;11787;52.018;8.570;2022-11-27T17:12:41;3.20;;;2.03;;
23236;SDS011;11787;52.018;8.570;2022-11-27T17:15:07;4.32;;;2.17;;
23236;SDS011;11787;52.018;8.570;2022-11-27T17:17:33;5.28;;;1.85;;
23236;SDS011;11787;52.018;8.570;2022-11-27T17:20:00;3.75;;;2.20;;
23236;SDS011;11787;52.018;8.570;2022-11-27T17:22:26;2.85;;;1.80;;
23236;SDS011;11787;52.018;8.570;2022-11-27T17:28:16;4.60;;;2.00;;
23236;SDS011;11787;52.018;8.570;2022-11-27T17:30:41;3.65;;;1.80;;
23236;SDS011;11787;52.018;8.570;2022-11-27T17:33:07;3.70;;;1.90;;
23236;SDS011;11787;52.018;8.570;2022-11-27T17:35:32;5.10;;;2.03;;
23236;SDS011;11787;52.018;8.570;2022-11-27T17:37:58;3.30;;;1.77;;
23236;SDS011;11787;52.018;8.570;2022-11-27T17:40:24;3.17;;;1.92;;
23236;SDS011;11787;52.018;8.570;2022-11-27T17:42:49;3.35;;;1.80;;
23236;SDS011;11787;52.018;8.570;2022-11-27T17:45:15;3.65;;;2.03;;
23236;SDS011;11787;52.018;8.570;2022-11-27T17:47:40;3.40;;;1.80;;
23236;SDS011;11787;52.018;8.570;2022-11-27T17:50:06;4.40;;;1.75;;
23236;SDS011;11787;52.018;8.570;2022-11-27T17:52:32;4.82;;;1.85;;
23236;SDS011;11787;52.018;8.570;2022-11-27T17:58:19;3.78;;;1.70;;
23236;SDS011;11787;52.018;8.570;2022-11-27T18:00:45;3.15;;;1.90;;
23236;SDS011;11787;52.018;8.570;2022-11-27T18:03:11;3.25;;;1.65;;
23236;SDS011;11787;52.018;8.570;2022-11-27T18:05:37;3.03;;;1.60;;
23236;SDS011;11787;52.018;8.570;2022-11-27T18:08:03;4.07;;;2.03;;
23236;SDS011;11787;52.018;8.570;2022-11-27T18:10:30;2.78;;;1.80;;
23236;SDS011;11787;52.018;8.570;2022-11-27T18:12:57;3.33;;;1.50;;
23236;SDS011;11787;52.018;8.570;2022-11-27T18:15:23;4.72;;;1.80;;
23236;SDS011;11787;52.018;8.570;2022-11-27T18:17:48;4.15;;;1.88;;